Time;durP1;ratioP1;P1;durP2;ratioP2;P2;SDS_P1;SDS_P2;PMS_P1;PMS_P2;Temp;Humidity;BMP_temperature;BMP_pressure;BME280_temperature;BME280_humidity;BME280_pressure;Samples;Min_cycle;Max_cycle;Signal;HPM_P1;HPM_P2
2022/01/24 00:02:17;;;;;;;19.60;6.10;;;;;;;;;;4996650;28;20236;-40
2022/01/24 00:04:44;;;;;;;9.75;6.47;;;;;;;;;;4998854;28;20745;-40
2022/01/24 00:07:11;;;;;;;14.55;6.38;;;;;;;;;;5001224;28;20228;-40
2022/01/24 00:09:38;;;;;;;17.17;6.65;;;;;;;;;;5003803;28;20228;-39
2022/01/24 00:12:16;;;;;;;13.77;5.90;;;;;;;;;;4998866;28;20239;-39
2022/01/24 00:17:40;;;;;;;15.60;7.07;;;;;;;;;;5013297;28;20246;-40
2022/01/24 00:28:08;;;;;;;9.82;7.18;;;;;;;;;;4993655;28;20703;-40
2022/01/24 00:30:35;;;;;;;15.20;7.45;;;;;;;;;;4997232;28;20227;-39
2022/01/24 00:33:02;;;;;;;15.30;6.47;;;;;;;;;;5012618;28;20232;-40
2022/01/24 00:35:29;;;;;;;12.57;7.35;;;;;;;;;;5012876;28;20706;-38
2022/01/24 00:38:02;;;;;;;13.88;7.90;;;;;;;;;;5013327;28;20227;-40
2022/01/24 00:40:31;;;;;;;15.98;8.13;;;;;;;;;;5009223;28;20236;-38
2022/01/24 00:42:59;;;;;;;11.75;7.57;;;;;;;;;;4993595;28;20232;-40
2022/01/24 00:53:38;;;;;;;12.63;8.70;;;;;;;;;;4993691;28;20220;-39
2022/01/24 00:56:05;;;;;;;11.90;7.80;;;;;;;;;;4993985;28;20228;-40
2022/01/24 00:58:32;;;;;;;12.85;8.43;;;;;;;;;;4993675;28;20224;-39
2022/01/24 01:00:59;;;;;;;12.27;8.38;;;;;;;;;;5000928;28;20227;-40
2022/01/24 01:03:26;;;;;;;13.70;9.13;;;;;;;;;;5002097;28;20749;-40
2022/01/24 01:06:04;;;;;;;12.35;8.65;;;;;;;;;;4993107;28;20228;-39
2022/01/24 01:19:34;;;;;;;13.85;9.20;;;;;;;;;;4992424;28;20258;-40
2022/01/24 01:22:01;;;;;;;14.65;9.65;;;;;;;;;;4993306;28;20216;-39
2022/01/24 01:24:31;;;;;;;13.55;9.85;;;;;;;;;;4993341;28;20231;-40
2022/01/24 01:27:04;;;;;;;14.13;9.93;;;;;;;;;;4993434;28;20228;-39
2022/01/24 01:29:45;;;;;;;15.45;9.93;;;;;;;;;;4993490;28;20745;-39
2022/01/24 01:32:23;;;;;;;13.50;10.25;;;;;;;;;;4992979;28;20334;-39
2022/01/24 01:35:15;;;;;;;13.77;9.63;;;;;;;;;;4993265;28;20302;-38
2022/01/24 01:52:16;;;;;;;15.93;10.25;;;;;;;;;;4992858;28;20231;-40
2022/01/24 01:56:58;;;;;;;14.95;10.88;;;;;;;;;;4983829;28;20711;-39
2022/01/24 01:59:25;;;;;;;18.40;11.60;;;;;;;;;;4995014;28;20234;-40
2022/01/24 02:01:52;;;;;;;16.58;11.55;;;;;;;;;;5010951;28;20242;-39
2022/01/24 02:04:19;;;;;;;16.83;10.73;;;;;;;;;;5005053;28;20275;-38
2022/01/24 02:06:46;;;;;;;15.32;10.75;;;;;;;;;;4995887;28;20238;-39
2022/01/24 02:09:14;;;;;;;17.00;11.23;;;;;;;;;;4995969;28;20229;-40
2022/01/24 02:11:41;;;;;;;17.05;11.45;;;;;;;;;;4995779;28;20234;-38
2022/01/24 02:14:14;;;;;;;15.32;10.90;;;;;;;;;;4995021;28;21062;-39
2022/01/24 02:16:50;;;;;;;16.38;11.60;;;;;;;;;;5002807;28;20318;-40
2022/01/24 02:24:32;;;;;;;17.48;11.95;;;;;;;;;;4995693;28;20234;-40
2022/01/24 02:27:00;;;;;;;17.25;11.80;;;;;;;;;;4995208;28;21084;-39
2022/01/24 02:29:45;;;;;;;19.33;11.35;;;;;;;;;;4995214;28;20315;-40
2022/01/24 02:32:12;;;;;;;17.20;12.13;;;;;;;;;;5012761;28;20235;-40
2022/01/24 02:34:42;;;;;;;16.90;11.95;;;;;;;;;;5014899;28;20239;-40
2022/01/24 02:37:09;;;;;;;16.00;11.55;;;;;;;;;;5005750;28;20766;-39
2022/01/24 02:53:20;;;;;;;17.00;10.82;;;;;;;;;;4994881;28;20690;-40
2022/01/24 02:55:47;;;;;;;18.58;11.30;;;;;;;;;;4994803;28;20240;-38
2022/01/24 02:58:16;;;;;;;16.50;11.82;;;;;;;;;;4994733;28;20228;-39
2022/01/24 03:00:43;;;;;;;15.52;11.65;;;;;;;;;;4994968;28;20228;-41
2022/01/24 03:03:10;;;;;;;16.67;10.57;;;;;;;;;;4995213;28;20232;-40
2022/01/24 03:05:37;;;;;;;15.57;11.35;;;;;;;;;;4994960;28;20276;-40
2022/01/24 03:08:06;;;;;;;15.63;11.57;;;;;;;;;;4995403;28;20236;-40
2022/01/24 03:11:07;;;;;;;16.13;11.65;;;;;;;;;;4994413;28;20228;-39
2022/01/24 03:15:53;;;;;;;16.38;11.65;;;;;;;;;;5002190;28;20239;-40
2022/01/24 03:18:20;;;;;;;15.77;11.52;;;;;;;;;;5015411;28;20231;-41
2022/01/24 03:20:47;;;;;;;15.77;11.25;;;;;;;;;;5008590;28;20962;-39
2022/01/24 03:23:14;;;;;;;16.35;11.20;;;;;;;;;;4995304;28;20238;-39
2022/01/24 03:25:41;;;;;;;16.08;11.00;;;;;;;;;;4995332;28;20227;-40
2022/01/24 03:28:08;;;;;;;14.10;10.95;;;;;;;;;;4995624;28;20239;-39
2022/01/24 03:30:35;;;;;;;15.35;11.30;;;;;;;;;;4999646;28;20236;-40
2022/01/24 03:33:02;;;;;;;14.02;10.05;;;;;;;;;;4997719;28;20232;-40
2022/01/24 03:35:29;;;;;;;14.95;11.60;;;;;;;;;;4994770;28;20279;-40
2022/01/24 03:37:56;;;;;;;15.45;11.40;;;;;;;;;;4995343;28;20236;-40
2022/01/24 03:40:23;;;;;;;13.50;10.57;;;;;;;;;;4994850;28;20244;-41
2022/01/24 03:42:50;;;;;;;14.68;11.20;;;;;;;;;;4994733;28;20232;-40
2022/01/24 03:45:24;;;;;;;14.68;11.13;;;;;;;;;;4997247;28;20594;-39
2022/01/24 03:48:22;;;;;;;14.65;10.73;;;;;;;;;;5014654;28;20266;-40
2022/01/24 03:50:49;;;;;;;16.38;11.82;;;;;;;;;;5014201;28;20607;-39
2022/01/24 03:53:16;;;;;;;15.40;11.52;;;;;;;;;;5012314;28;20232;-39
2022/01/24 03:55:43;;;;;;;14.70;11.02;;;;;;;;;;4995101;28;20228;-40
2022/01/24 03:58:10;;;;;;;13.95;10.38;;;;;;;;;;4975374;28;20244;-41
2022/01/24 04:00:37;;;;;;;17.42;11.68;;;;;;;;;;4983317;28;20227;-40
2022/01/24 04:03:04;;;;;;;13.98;10.30;;;;;;;;;;5014777;28;20253;-39
2022/01/24 04:05:31;;;;;;;14.00;10.55;;;;;;;;;;5001763;28;20236;-39
2022/01/24 04:07:58;;;;;;;15.00;10.40;;;;;;;;;;4995011;28;20220;-41
2022/01/24 04:10:26;;;;;;;13.60;10.27;;;;;;;;;;4993882;28;20266;-39
2022/01/24 04:12:53;;;;;;;13.50;9.95;;;;;;;;;;4995147;28;20232;-40
2022/01/24 04:15:46;;;;;;;12.80;10.27;;;;;;;;;;4994732;28;20235;-40
2022/01/24 04:18:39;;;;;;;14.73;11.32;;;;;;;;;;4994498;28;20236;-39
2022/01/24 04:21:28;;;;;;;12.80;9.95;;;;;;;;;;4993080;28;20224;-39
2022/01/24 04:24:07;;;;;;;14.52;10.70;;;;;;;;;;4994349;28;20238;-39
2022/01/24 04:26:34;;;;;;;13.38;10.05;;;;;;;;;;4990838;28;20236;-40
2022/01/24 04:29:01;;;;;;;13.60;10.38;;;;;;;;;;4975282;28;20742;-40
2022/01/24 04:31:28;;;;;;;12.82;9.70;;;;;;;;;;4997124;28;20981;-39
2022/01/24 04:33:55;;;;;;;12.15;9.18;;;;;;;;;;5013575;28;20231;-39
2022/01/24 04:36:22;;;;;;;13.63;10.50;;;;;;;;;;4999152;28;20242;-39
2022/01/24 04:38:49;;;;;;;12.30;9.38;;;;;;;;;;4993393;28;20240;-40
2022/01/24 04:41:21;;;;;;;10.75;8.77;;;;;;;;;;4993889;28;20275;-41
2022/01/24 04:56:58;;;;;;;14.13;9.93;;;;;;;;;;4974197;28;20240;-39
2022/01/24 04:59:25;;;;;;;11.98;9.10;;;;;;;;;;4976472;28;20236;-40
2022/01/24 05:01:52;;;;;;;12.32;9.00;;;;;;;;;;5007992;28;20278;-40
2022/01/24 05:04:19;;;;;;;10.15;8.10;;;;;;;;;;5013384;28;20263;-39
2022/01/24 05:06:46;;;;;;;13.50;8.70;;;;;;;;;;4995795;28;20259;-40
2022/01/24 05:09:13;;;;;;;9.45;7.90;;;;;;;;;;4993581;28;20228;-40
2022/01/24 05:11:55;;;;;;;10.50;7.95;;;;;;;;;;4992787;28;20258;-40
2022/01/24 05:25:32;;;;;;;9.23;7.63;;;;;;;;;;4993151;28;20232;-40
2022/01/24 05:27:59;;;;;;;10.23;7.68;;;;;;;;;;4993157;28;20706;-39
2022/01/24 05:30:26;;;;;;;9.60;7.35;;;;;;;;;;4996078;28;20694;-39
2022/01/24 05:32:53;;;;;;;21.27;7.72;;;;;;;;;;5005511;28;20232;-38
2022/01/24 05:35:20;;;;;;;12.10;7.25;;;;;;;;;;4992463;28;20251;-40
2022/01/24 05:37:46;;;;;;;10.32;6.93;;;;;;;;;;4992845;28;20228;-39
2022/01/24 05:40:13;;;;;;;8.82;6.90;;;;;;;;;;4992040;28;20239;-39
2022/01/24 05:42:40;;;;;;;9.20;6.72;;;;;;;;;;4992689;28;20583;-38
2022/01/24 05:45:07;;;;;;;10.20;6.55;;;;;;;;;;4992672;28;20228;-40
2022/01/24 05:47:34;;;;;;;8.00;6.00;;;;;;;;;;5012215;28;20231;-39
2022/01/24 05:50:01;;;;;;;7.30;6.07;;;;;;;;;;5012659;28;20235;-40
2022/01/24 05:52:28;;;;;;;7.47;5.78;;;;;;;;;;5013323;28;20223;-40
2022/01/24 05:54:57;;;;;;;8.48;5.30;;;;;;;;;;5005669;28;20232;-39
2022/01/24 05:57:24;;;;;;;7.45;5.97;;;;;;;;;;4992649;28;20232;-39
2022/01/24 05:59:51;;;;;;;6.55;5.47;;;;;;;;;;4992931;28;20734;-39
2022/01/24 06:02:18;;;;;;;7.22;5.65;;;;;;;;;;4997157;28;20262;-40
2022/01/24 06:04:45;;;;;;;6.65;5.38;;;;;;;;;;4992539;28;21019;-39
2022/01/24 06:07:12;;;;;;;6.63;5.70;;;;;;;;;;4992408;28;20254;-39
2022/01/24 06:09:39;;;;;;;6.43;5.40;;;;;;;;;;4993732;28;21043;-39
2022/01/24 06:12:06;;;;;;;7.15;5.25;;;;;;;;;;4992888;28;20220;-40
2022/01/24 06:14:33;;;;;;;5.72;4.80;;;;;;;;;;4993420;28;20224;-39
2022/01/24 06:17:00;;;;;;;6.00;4.93;;;;;;;;;;4995013;28;20267;-41
2022/01/24 06:19:27;;;;;;;6.63;4.65;;;;;;;;;;4992631;28;20575;-39
2022/01/24 06:21:54;;;;;;;6.35;5.20;;;;;;;;;;4992739;28;21078;-39
2022/01/24 06:24:21;;;;;;;6.53;4.97;;;;;;;;;;4993434;28;20228;-39
2022/01/24 06:27:08;;;;;;;6.30;4.75;;;;;;;;;;4992307;28;20228;-39
2022/01/24 06:29:35;;;;;;;5.20;4.60;;;;;;;;;;4992288;28;20246;-39
2022/01/24 06:32:01;;;;;;;6.22;4.50;;;;;;;;;;5008070;28;20224;-39
2022/01/24 06:34:28;;;;;;;5.65;4.50;;;;;;;;;;5011398;28;20228;-39
2022/01/24 06:36:56;;;;;;;5.10;4.20;;;;;;;;;;4997115;28;20228;-40
2022/01/24 06:39:23;;;;;;;5.15;4.32;;;;;;;;;;4991445;28;20236;-40
2022/01/24 06:42:07;;;;;;;4.82;4.13;;;;;;;;;;4992064;28;20691;-39
2022/01/24 06:44:34;;;;;;;4.57;4.07;;;;;;;;;;4993458;28;20239;-38
2022/01/24 06:47:01;;;;;;;4.38;3.75;;;;;;;;;;5011419;28;20278;-39
2022/01/24 06:49:28;;;;;;;4.40;4.00;;;;;;;;;;5010857;28;20887;-40
2022/01/24 06:51:55;;;;;;;5.70;3.85;;;;;;;;;;4995798;28;20220;-39
2022/01/24 06:54:22;;;;;;;4.45;3.97;;;;;;;;;;4995859;28;20223;-38
2022/01/24 06:56:49;;;;;;;4.30;3.75;;;;;;;;;;4996338;28;20247;-40
2022/01/24 06:59:16;;;;;;;4.60;3.60;;;;;;;;;;4996081;28;20236;-40
2022/01/24 07:01:43;;;;;;;4.55;3.85;;;;;;;;;;4995789;28;20228;-41
2022/01/24 07:04:10;;;;;;;5.55;3.70;;;;;;;;;;4996467;28;20280;-40
2022/01/24 07:06:37;;;;;;;4.95;3.70;;;;;;;;;;4994883;28;20243;-38
2022/01/24 07:09:04;;;;;;;3.88;3.47;;;;;;;;;;4994707;28;21029;-40
2022/01/24 07:11:31;;;;;;;5.43;3.55;;;;;;;;;;4994033;28;20362;-40
2022/01/24 07:13:58;;;;;;;3.90;3.47;;;;;;;;;;4993391;28;20236;-40
2022/01/24 07:16:36;;;;;;;3.65;3.10;;;;;;;;;;4994823;28;20243;-40
2022/01/24 07:19:03;;;;;;;3.97;3.47;;;;;;;;;;4993432;28;20243;-40
2022/01/24 07:21:31;;;;;;;4.57;3.03;;;;;;;;;;4994586;28;20256;-39
2022/01/24 07:23:57;;;;;;;4.15;3.15;;;;;;;;;;4978559;28;20239;-40
2022/01/24 07:26:24;;;;;;;4.05;2.75;;;;;;;;;;4974929;28;20961;-39
2022/01/24 07:28:51;;;;;;;3.67;3.00;;;;;;;;;;4975039;28;20233;-38
2022/01/24 07:31:19;;;;;;;3.53;2.90;;;;;;;;;;4995109;28;20235;-39
2022/01/24 07:33:46;;;;;;;4.13;3.00;;;;;;;;;;5001234;28;20243;-39
2022/01/24 07:36:13;;;;;;;4.55;3.25;;;;;;;;;;4994548;28;20236;-40
2022/01/24 07:38:40;;;;;;;3.83;3.33;;;;;;;;;;4994601;28;20239;-39
2022/01/24 07:41:07;;;;;;;3.47;2.92;;;;;;;;;;4999697;28;20695;-39
2022/01/24 07:43:34;;;;;;;3.00;2.70;;;;;;;;;;5003120;28;20598;-38
2022/01/24 07:46:01;;;;;;;3.33;3.03;;;;;;;;;;5002667;28;20228;-40
2022/01/24 07:48:28;;;;;;;4.05;3.00;;;;;;;;;;4996648;28;20781;-40
2022/01/24 07:50:55;;;;;;;3.78;2.97;;;;;;;;;;4992502;28;20232;-40
2022/01/24 07:53:24;;;;;;;3.83;2.97;;;;;;;;;;4994541;28;20239;-40
2022/01/24 07:56:10;;;;;;;2.90;2.55;;;;;;;;;;4983475;28;20236;-39
2022/01/24 07:58:37;;;;;;;3.92;3.03;;;;;;;;;;4986996;28;20236;-38
2022/01/24 08:01:04;;;;;;;3.42;2.65;;;;;;;;;;4990771;28;21090;-39
2022/01/24 08:03:32;;;;;;;3.15;2.80;;;;;;;;;;4989023;28;20320;-39
2022/01/24 08:05:59;;;;;;;2.85;2.60;;;;;;;;;;4991238;28;20263;-40
2022/01/24 08:08:26;;;;;;;3.83;2.80;;;;;;;;;;4991751;28;20243;-39
2022/01/24 08:10:53;;;;;;;4.63;2.67;;;;;;;;;;4999295;28;20223;-39
2022/01/24 08:13:20;;;;;;;3.28;2.70;;;;;;;;;;4997038;28;20239;-39
2022/01/24 08:15:47;;;;;;;3.40;2.63;;;;;;;;;;4997291;28;20235;-39
2022/01/24 08:18:14;;;;;;;2.92;2.60;;;;;;;;;;4998446;28;20216;-40
2022/01/24 08:20:41;;;;;;;3.33;2.90;;;;;;;;;;4998597;28;20228;-40
2022/01/24 08:23:09;;;;;;;3.80;2.60;;;;;;;;;;4996137;28;20232;-39
2022/01/24 08:25:36;;;;;;;3.45;2.90;;;;;;;;;;4991435;28;20232;-40
2022/01/24 08:28:02;;;;;;;3.90;3.20;;;;;;;;;;4998096;28;20263;-40
2022/01/24 08:30:29;;;;;;;3.28;2.63;;;;;;;;;;4992342;28;20241;-40
2022/01/24 08:32:56;;;;;;;3.80;2.90;;;;;;;;;;4993619;28;20773;-40
2022/01/24 08:35:23;;;;;;;4.60;2.83;;;;;;;;;;5000474;28;20717;-41
2022/01/24 08:37:50;;;;;;;5.43;2.92;;;;;;;;;;4993665;28;20753;-39
2022/01/24 08:40:22;;;;;;;9.48;3.08;;;;;;;;;;4991827;28;20813;-39
2022/01/24 08:42:56;;;;;;;4.85;3.00;;;;;;;;;;4993218;28;20255;-39
2022/01/24 08:48:09;;;;;;;4.68;2.80;;;;;;;;;;4995604;28;20619;-40
2022/01/24 08:50:36;;;;;;;5.82;3.25;;;;;;;;;;4993804;28;20714;-39
2022/01/24 08:53:03;;;;;;;4.82;3.47;;;;;;;;;;4994307;28;21023;-39
2022/01/24 08:55:30;;;;;;;8.93;3.17;;;;;;;;;;4990453;28;20231;-38
2022/01/24 08:57:57;;;;;;;14.35;3.55;;;;;;;;;;4994447;28;20446;-39
2022/01/24 09:00:24;;;;;;;15.40;3.63;;;;;;;;;;4998633;28;20449;-38
2022/01/24 09:02:51;;;;;;;16.35;3.95;;;;;;;;;;4995468;28;20236;-38
2022/01/24 09:05:19;;;;;;;6.22;2.97;;;;;;;;;;4997483;28;20998;-38
2022/01/24 09:07:46;;;;;;;7.80;3.50;;;;;;;;;;4993850;28;20231;-37
2022/01/24 09:10:13;;;;;;;7.65;3.85;;;;;;;;;;5012317;28;21003;-37
2022/01/24 09:12:40;;;;;;;6.78;3.30;;;;;;;;;;5002422;28;20265;-39
2022/01/24 09:15:07;;;;;;;9.52;3.20;;;;;;;;;;5017079;28;20224;-39
2022/01/24 09:17:37;;;;;;;8.82;3.72;;;;;;;;;;5027522;28;20228;-38
2022/01/24 09:20:04;;;;;;;7.60;3.75;;;;;;;;;;5022785;28;20223;-39
2022/01/24 09:22:41;;;;;;;9.13;3.75;;;;;;;;;;5005389;28;20243;-37
2022/01/24 09:25:10;;;;;;;10.32;3.75;;;;;;;;;;5011176;28;20255;-38
2022/01/24 09:27:37;;;;;;;5.72;3.58;;;;;;;;;;5016936;28;20239;-38
2022/01/24 09:30:04;;;;;;;7.38;3.63;;;;;;;;;;5017131;28;20273;-38
2022/01/24 09:32:31;;;;;;;5.95;2.88;;;;;;;;;;5036080;28;20231;-39
2022/01/24 09:34:58;;;;;;;5.93;3.70;;;;;;;;;;5025297;28;20240;-38
2022/01/24 09:37:25;;;;;;;5.55;3.65;;;;;;;;;;5017647;28;20228;-37
2022/01/24 09:39:52;;;;;;;5.15;3.45;;;;;;;;;;5015524;28;20208;-37
2022/01/24 09:42:26;;;;;;;7.97;3.47;;;;;;;;;;5014467;28;20232;-37
2022/01/24 09:44:53;;;;;;;7.30;4.07;;;;;;;;;;5006363;28;20258;-38
2022/01/24 09:47:20;;;;;;;4.55;3.60;;;;;;;;;;5012340;28;20224;-39
2022/01/24 09:49:47;;;;;;;5.63;3.80;;;;;;;;;;5006019;28;20216;-38
2022/01/24 09:52:14;;;;;;;6.65;3.70;;;;;;;;;;5005806;28;20984;-38
2022/01/24 09:54:40;;;;;;;5.55;3.60;;;;;;;;;;5010629;28;20236;-38
2022/01/24 09:57:08;;;;;;;4.60;3.85;;;;;;;;;;5007055;28;20304;-39
2022/01/24 09:59:35;;;;;;;4.22;3.70;;;;;;;;;;5003789;28;20196;-37
2022/01/24 10:02:01;;;;;;;6.07;4.20;;;;;;;;;;5024420;28;20332;-37
2022/01/24 10:04:29;;;;;;;5.40;4.32;;;;;;;;;;5034726;28;20282;-38
2022/01/24 10:06:56;;;;;;;9.77;4.32;;;;;;;;;;5030914;28;20284;-38
2022/01/24 10:09:23;;;;;;;7.30;4.50;;;;;;;;;;5010595;28;20224;-38
2022/01/24 10:11:50;;;;;;;6.00;5.40;;;;;;;;;;5011396;28;20231;-37
2022/01/24 10:17:03;;;;;;;10.32;5.60;;;;;;;;;;5008648;28;20236;-37
2022/01/24 10:19:30;;;;;;;6.40;5.22;;;;;;;;;;5006234;28;20213;-37
2022/01/24 10:22:00;;;;;;;6.20;5.40;;;;;;;;;;4999760;28;20220;-37
2022/01/24 10:24:28;;;;;;;7.40;5.40;;;;;;;;;;4999289;28;20221;-37
2022/01/24 10:26:55;;;;;;;11.00;5.60;;;;;;;;;;4999836;28;20221;-37
2022/01/24 10:29:22;;;;;;;6.90;5.38;;;;;;;;;;5002708;28;20268;-37
2022/01/24 10:31:49;;;;;;;9.40;6.00;;;;;;;;;;5019938;28;20279;-37
2022/01/24 10:34:23;;;;;;;7.57;5.93;;;;;;;;;;5020667;28;20264;-36
2022/01/24 10:36:50;;;;;;;6.95;5.90;;;;;;;;;;5019235;28;20239;-37
2022/01/24 10:39:20;;;;;;;15.10;6.50;;;;;;;;;;5020166;28;20206;-37
2022/01/24 10:42:09;;;;;;;17.85;6.75;;;;;;;;;;5017844;28;20239;-38
2022/01/24 10:44:36;;;;;;;12.98;6.93;;;;;;;;;;5018038;28;20212;-36
2022/01/24 10:47:07;;;;;;;16.45;7.40;;;;;;;;;;5012016;28;20251;-37
2022/01/24 10:49:34;;;;;;;12.80;6.85;;;;;;;;;;5014122;28;20227;-35
2022/01/24 10:52:01;;;;;;;11.45;7.00;;;;;;;;;;5006216;28;20232;-36
2022/01/24 10:54:28;;;;;;;8.95;6.72;;;;;;;;;;4994597;28;20228;-37
2022/01/24 10:56:55;;;;;;;9.20;6.88;;;;;;;;;;4987681;28;20245;-37
2022/01/24 10:59:22;;;;;;;8.70;6.70;;;;;;;;;;4979294;28;20233;-37
2022/01/24 11:01:49;;;;;;;10.63;6.75;;;;;;;;;;5003237;28;20960;-37
2022/01/24 11:04:17;;;;;;;9.93;6.55;;;;;;;;;;4996106;28;20388;-37
2022/01/24 11:06:44;;;;;;;7.93;6.60;;;;;;;;;;4994766;28;21047;-37
2022/01/24 11:09:11;;;;;;;8.68;6.32;;;;;;;;;;4995011;28;20602;-35
2022/01/24 11:11:38;;;;;;;7.72;6.93;;;;;;;;;;5002214;28;20232;-37
2022/01/24 11:14:05;;;;;;;10.15;6.75;;;;;;;;;;5000832;28;20238;-37
2022/01/24 11:16:32;;;;;;;8.32;6.70;;;;;;;;;;5000060;28;20237;-38
2022/01/24 11:19:01;;;;;;;7.65;6.63;;;;;;;;;;4994085;28;20957;-37
2022/01/24 11:21:33;;;;;;;7.25;6.55;;;;;;;;;;4996543;28;20228;-36
2022/01/24 11:24:03;;;;;;;10.20;6.78;;;;;;;;;;4995758;28;20451;-37
2022/01/24 11:26:30;;;;;;;9.50;7.47;;;;;;;;;;4999624;28;20269;-37
2022/01/24 11:28:57;;;;;;;9.93;7.30;;;;;;;;;;5001005;28;20228;-37
2022/01/24 11:31:24;;;;;;;9.85;7.30;;;;;;;;;;4999691;28;20235;-37
2022/01/24 11:33:51;;;;;;;8.85;6.88;;;;;;;;;;4997367;28;20289;-37
2022/01/24 11:36:19;;;;;;;8.25;7.10;;;;;;;;;;5001583;28;20232;-38
2022/01/24 11:38:46;;;;;;;11.27;6.60;;;;;;;;;;4999515;28;20247;-38
2022/01/24 11:41:21;;;;;;;9.50;7.45;;;;;;;;;;5007838;28;20227;-36
2022/01/24 11:43:48;;;;;;;7.95;6.80;;;;;;;;;;5020009;28;20242;-39
2022/01/24 11:46:15;;;;;;;9.95;7.20;;;;;;;;;;5014360;28;20435;-38
2022/01/24 11:48:42;;;;;;;7.75;7.05;;;;;;;;;;4995515;28;21044;-36
2022/01/24 11:51:11;;;;;;;9.48;7.70;;;;;;;;;;4994208;28;20247;-37
2022/01/24 11:53:41;;;;;;;9.25;7.20;;;;;;;;;;4993655;28;20232;-35
2022/01/24 11:56:07;;;;;;;12.90;7.47;;;;;;;;;;4993292;28;20236;-37
2022/01/24 11:58:34;;;;;;;10.73;7.65;;;;;;;;;;4992622;28;20241;-36
2022/01/24 12:01:07;;;;;;;9.27;7.05;;;;;;;;;;5002080;28;20227;-36
2022/01/24 12:03:34;;;;;;;7.80;6.60;;;;;;;;;;5013452;28;20223;-35
2022/01/24 12:06:09;;;;;;;9.20;6.85;;;;;;;;;;5013507;28;20254;-37
2022/01/24 12:08:56;;;;;;;10.15;6.82;;;;;;;;;;5006036;28;20247;-36
2022/01/24 12:11:24;;;;;;;14.70;6.47;;;;;;;;;;4993236;28;20847;-36
2022/01/24 12:13:54;;;;;;;10.48;7.05;;;;;;;;;;4992215;28;20228;-36
2022/01/24 12:16:22;;;;;;;8.98;7.50;;;;;;;;;;5003815;28;20239;-36
2022/01/24 12:18:49;;;;;;;9.75;7.90;;;;;;;;;;5012857;28;20231;-36
2022/01/24 12:21:16;;;;;;;14.18;7.82;;;;;;;;;;4994769;28;20640;-36
2022/01/24 12:23:43;;;;;;;12.75;7.47;;;;;;;;;;4993233;28;20228;-36
2022/01/24 12:26:30;;;;;;;13.45;7.82;;;;;;;;;;4993453;28;20224;-36
2022/01/24 12:29:01;;;;;;;7.88;7.07;;;;;;;;;;4993263;28;20228;-35
2022/01/24 12:31:29;;;;;;;12.60;7.93;;;;;;;;;;4992615;28;21001;-36
2022/01/24 12:33:56;;;;;;;7.75;6.95;;;;;;;;;;4993036;28;20238;-37
2022/01/24 12:36:23;;;;;;;11.40;7.60;;;;;;;;;;4993191;28;20232;-36
2022/01/24 12:38:52;;;;;;;7.53;6.57;;;;;;;;;;4992251;28;20242;-36
2022/01/24 12:41:21;;;;;;;9.93;6.90;;;;;;;;;;4990834;28;20617;-35
2022/01/24 12:46:19;;;;;;;8.05;7.25;;;;;;;;;;4992373;28;20699;-36
2022/01/24 12:46:38;;;;;;;10.63;7.07;;;;;;;;;;5001945;28;20266;-35
2022/01/24 12:49:05;;;;;;;7.95;7.22;;;;;;;;;;5001680;28;20232;-35
2022/01/24 12:51:32;;;;;;;10.43;7.90;;;;;;;;;;4992695;28;20705;-35
2022/01/24 12:54:01;;;;;;;8.55;7.18;;;;;;;;;;4992613;28;20270;-35
2022/01/24 12:56:29;;;;;;;7.50;6.75;;;;;;;;;;4992279;28;20236;-35
2022/01/24 12:58:56;;;;;;;9.43;6.80;;;;;;;;;;4992421;28;21062;-35
2022/01/24 13:01:23;;;;;;;8.80;6.82;;;;;;;;;;5003408;28;20234;-34
2022/01/24 13:03:50;;;;;;;7.70;7.00;;;;;;;;;;5005475;28;20243;-35
2022/01/24 13:06:18;;;;;;;7.82;7.13;;;;;;;;;;4992191;28;20279;-35
2022/01/24 13:08:45;;;;;;;8.55;7.40;;;;;;;;;;4991777;28;20730;-37
2022/01/24 13:11:12;;;;;;;7.95;7.18;;;;;;;;;;4992352;28;20728;-34
2022/01/24 13:13:41;;;;;;;9.25;7.25;;;;;;;;;;4992712;28;20900;-35
2022/01/24 13:21:43;;;;;;;7.70;7.00;;;;;;;;;;5011861;28;20223;-35
2022/01/24 13:24:10;;;;;;;7.75;6.95;;;;;;;;;;5012098;28;20223;-36
2022/01/24 13:26:38;;;;;;;9.43;7.72;;;;;;;;;;4998704;28;20259;-35
2022/01/24 13:29:05;;;;;;;8.55;7.65;;;;;;;;;;4992081;28;20258;-34
2022/01/24 13:31:32;;;;;;;8.07;7.28;;;;;;;;;;5003548;28;20235;-34
2022/01/24 13:33:59;;;;;;;8.18;7.38;;;;;;;;;;5011682;28;20235;-35
2022/01/24 13:36:26;;;;;;;8.50;6.97;;;;;;;;;;5008412;28;20232;-36
2022/01/24 13:38:53;;;;;;;7.85;7.15;;;;;;;;;;4992238;28;20237;-34
2022/01/24 13:41:21;;;;;;;7.93;7.20;;;;;;;;;;4991845;28;20370;-35
2022/01/24 13:43:48;;;;;;;9.40;7.32;;;;;;;;;;4992216;28;20239;-35
2022/01/24 13:46:16;;;;;;;7.50;6.88;;;;;;;;;;5001977;28;20323;-36
2022/01/24 13:48:43;;;;;;;8.20;6.72;;;;;;;;;;4997660;28;20737;-34
2022/01/24 13:51:10;;;;;;;8.00;7.13;;;;;;;;;;4987925;28;20237;-36
2022/01/24 13:53:37;;;;;;;8.15;7.35;;;;;;;;;;4972367;28;20673;-35
2022/01/24 13:56:04;;;;;;;8.30;7.50;;;;;;;;;;4975838;28;20235;-34
2022/01/24 13:58:31;;;;;;;8.98;8.07;;;;;;;;;;4979216;28;20243;-36
2022/01/24 14:00:58;;;;;;;8.60;7.78;;;;;;;;;;5003248;28;20233;-36
2022/01/24 14:03:26;;;;;;;8.60;7.78;;;;;;;;;;5014032;28;20748;-35
2022/01/24 14:05:53;;;;;;;8.40;7.55;;;;;;;;;;5015038;28;20227;-33
2022/01/24 14:08:20;;;;;;;8.60;7.70;;;;;;;;;;4997691;28;20235;-36
2022/01/24 14:10:50;;;;;;;9.20;8.13;;;;;;;;;;4991236;28;20228;-36
2022/01/24 14:13:23;;;;;;;10.13;8.15;;;;;;;;;;4981830;28;20239;-35
2022/01/24 14:15:59;;;;;;;9.80;8.45;;;;;;;;;;4999599;28;20235;-36
2022/01/24 14:18:29;;;;;;;9.43;8.05;;;;;;;;;;4995334;28;20228;-36
2022/01/24 14:20:56;;;;;;;10.82;7.60;;;;;;;;;;4987633;28;20243;-38
2022/01/24 14:23:23;;;;;;;9.98;7.72;;;;;;;;;;4994851;28;20254;-37
2022/01/24 14:25:50;;;;;;;9.73;7.93;;;;;;;;;;4991174;28;20247;-37
2022/01/24 14:28:18;;;;;;;9.23;8.32;;;;;;;;;;4991704;28;20232;-36
2022/01/24 14:30:45;;;;;;;9.13;8.23;;;;;;;;;;4990733;28;20239;-38
2022/01/24 14:33:12;;;;;;;9.40;7.78;;;;;;;;;;4989833;28;20232;-36
2022/01/24 14:35:43;;;;;;;9.48;7.97;;;;;;;;;;4989246;28;20802;-38
2022/01/24 14:38:10;;;;;;;10.90;8.43;;;;;;;;;;4990375;28;20251;-37
2022/01/24 14:40:42;;;;;;;13.95;8.77;;;;;;;;;;4991962;28;20238;-35
2022/01/24 14:45:54;;;;;;;8.70;7.80;;;;;;;;;;4991260;28;20240;-37
2022/01/24 14:48:21;;;;;;;9.18;8.18;;;;;;;;;;4989249;28;20240;-33
2022/01/24 14:50:48;;;;;;;15.73;8.63;;;;;;;;;;4990123;28;20664;-37
2022/01/24 14:53:16;;;;;;;10.45;8.70;;;;;;;;;;4983132;28;20238;-37
2022/01/24 14:55:43;;;;;;;14.02;8.60;;;;;;;;;;4981356;28;20432;-38
2022/01/24 14:58:10;;;;;;;16.38;8.63;;;;;;;;;;4973843;28;20241;-37
2022/01/24 15:00:37;;;;;;;15.15;9.25;;;;;;;;;;4985841;28;20224;-37
2022/01/24 15:03:04;;;;;;;12.32;8.85;;;;;;;;;;4984300;28;20289;-34
2022/01/24 15:05:32;;;;;;;11.73;8.55;;;;;;;;;;4992330;28;20255;-37
2022/01/24 15:07:59;;;;;;;10.20;8.60;;;;;;;;;;4991308;28;20239;-38
2022/01/24 15:10:26;;;;;;;16.42;8.95;;;;;;;;;;4989037;28;20243;-37
2022/01/24 15:12:55;;;;;;;11.07;9.15;;;;;;;;;;4991592;28;20232;-38
2022/01/24 15:15:23;;;;;;;10.27;9.02;;;;;;;;;;4990060;28;20247;-36
2022/01/24 15:26:12;;;;;;;11.27;9.25;;;;;;;;;;4997757;28;20243;-37
2022/01/24 15:28:39;;;;;;;9.60;8.60;;;;;;;;;;4994689;28;20232;-40
2022/01/24 15:31:06;;;;;;;9.80;8.80;;;;;;;;;;4989073;28;20243;-37
2022/01/24 15:33:33;;;;;;;10.95;9.63;;;;;;;;;;5000895;28;20234;-40
2022/01/24 15:36:00;;;;;;;11.15;8.63;;;;;;;;;;4991570;28;20240;-39
2022/01/24 15:38:27;;;;;;;11.57;8.18;;;;;;;;;;4996042;28;20248;-39
2022/01/24 15:40:54;;;;;;;10.85;9.10;;;;;;;;;;4989884;28;20232;-38
2022/01/24 15:46:00;;;;;;;11.68;9.68;;;;;;;;;;4989383;28;20267;-39
2022/01/24 15:48:27;;;;;;;10.65;9.27;;;;;;;;;;4987128;28;20976;-37
2022/01/24 15:50:54;;;;;;;10.70;9.60;;;;;;;;;;4989944;28;21144;-36
2022/01/24 15:53:21;;;;;;;12.48;9.60;;;;;;;;;;4987650;28;20994;-39
2022/01/24 15:58:38;;;;;;;11.05;8.60;;;;;;;;;;4968808;28;20243;-38
2022/01/24 16:01:05;;;;;;;10.52;8.90;;;;;;;;;;4989785;28;20236;-37
2022/01/24 16:03:32;;;;;;;10.93;9.38;;;;;;;;;;4989483;28;20315;-36
2022/01/24 16:05:59;;;;;;;10.07;9.07;;;;;;;;;;4989136;28;20455;-38
2022/01/24 16:08:26;;;;;;;10.55;9.32;;;;;;;;;;4989097;28;21210;-39
2022/01/24 16:10:53;;;;;;;13.68;9.02;;;;;;;;;;4988390;28;20236;-40
2022/01/24 16:13:22;;;;;;;12.18;9.50;;;;;;;;;;4989860;28;20232;-38
2022/01/24 16:15:49;;;;;;;13.05;8.82;;;;;;;;;;4987532;28;20247;-39
2022/01/24 16:18:18;;;;;;;9.70;8.55;;;;;;;;;;4989006;28;20350;-39
2022/01/24 16:25:44;;;;;;;11.52;8.45;;;;;;;;;;4988611;28;20735;-39
2022/01/24 16:28:11;;;;;;;10.73;8.77;;;;;;;;;;4988725;28;20941;-37
2022/01/24 16:30:38;;;;;;;8.85;8.05;;;;;;;;;;4989155;28;20247;-37
2022/01/24 16:33:05;;;;;;;8.93;8.02;;;;;;;;;;4986877;28;20238;-38
2022/01/24 16:35:32;;;;;;;9.90;8.70;;;;;;;;;;4990044;28;20243;-38
2022/01/24 16:37:59;;;;;;;11.63;8.40;;;;;;;;;;4988232;28;20243;-38
2022/01/24 16:40:32;;;;;;;9.32;8.40;;;;;;;;;;4990940;28;20224;-37
2022/01/24 16:43:21;;;;;;;8.98;8.10;;;;;;;;;;4990137;28;20237;-37
2022/01/24 16:48:31;;;;;;;9.45;8.45;;;;;;;;;;4989152;28;20251;-38
2022/01/24 16:50:58;;;;;;;9.68;8.77;;;;;;;;;;4988144;28;20232;-37
2022/01/24 16:53:25;;;;;;;9.27;8.38;;;;;;;;;;4988994;28;21264;-36